^^
Grace C. Lehan Memorial Weather Station Historical Data
Daily Summary for July 23, 2021 Units:  Metric    English   Both
Daily Weekly Monthly Yearly
  High: Low: Average:
Temperature: 7.1 °C 0.5 °C 3.2 °C
Dew Point: 1.9 °C -0.7 °C 0.7 °C
Humidity: 93% 58.2% 84%
Wind Speed: 6km/h 0km/h 1.1km/h
Wind Gust: 19.3km/h - -
Wind- - SW
Pressure: 1006.7 hPa 1000.2 hPa -
Precipitation: 0.51 mm    
 
 
Tabular Data for July 23, 2021
Time Temperature Dew Point Pressure Wind Wind Speed Wind Gust Humidity Rainfall Rate (Hourly) solar
00:04 1.4 °C 0.3 °C 1003.9 hPa WSW 0.6 km/h 14.5 km/h 92% 0 mm 0 W/m2
00:09 1.4 °C 0.2 °C 1003.9 hPa WSW 1.1 km/h 9.7 km/h 92% 0 mm 0 W/m2
00:14 1.3 °C 0.2 °C 1003.9 hPa WSW 0.5 km/h 14.5 km/h 92% 0 mm 0 W/m2
00:19 1.3 °C 0.1 °C 1003.9 hPa Calm   14.5 km/h 91.7% 0 mm 0 W/m2
00:24 1.2 °C 0 °C 1003.9 hPa WSW 0.3 km/h 14.5 km/h 91.6% 0 mm 0 W/m2
00:29 1.2 °C -0.1 °C 1003.9 hPa Calm   14.5 km/h 91.3% 0 mm 0 W/m2
00:34 1.2 °C 0 °C 1003.9 hPa Calm   14.5 km/h 91.9% 0 mm 0 W/m2
00:39 1.1 °C -0.2 °C 1003.9 hPa WSW 0.3 km/h 3.2 km/h 91.3% 0 mm 0 W/m2
00:44 1.1 °C -0.1 °C 1003.9 hPa Calm   3.2 km/h 92% 0 mm 0 W/m2
00:49 1 °C -0.2 °C 1003.9 hPa Calm   3.2 km/h 92% 0 mm 0 W/m2
00:54 0.9 °C -0.2 °C 1003.9 hPa WSW 0.8 km/h 4.8 km/h 91.9% 0 mm 0 W/m2
00:59 0.9 °C -0.4 °C 1003.6 hPa Calm   4.8 km/h 91% 0 mm 0 W/m2
01:04 0.9 °C -0.3 °C 1003.6 hPa Calm   4.8 km/h 91.6% 0 mm 0 W/m2
01:09 0.8 °C -0.3 °C 1003.6 hPa Calm     91.8% 0 mm 0 W/m2
01:14 0.8 °C -0.5 °C 1003.6 hPa Calm     91% 0 mm 0 W/m2
01:19 0.7 °C -0.6 °C 1003.6 hPa Calm     91% 0 mm 0 W/m2
01:24 0.7 °C -0.6 °C 1003.9 hPa Calm     91.2% 0 mm 0 W/m2
01:29 0.6 °C -0.6 °C 1003.9 hPa Calm     92% 0 mm 0 W/m2
01:34 0.6 °C -0.6 °C 1003.9 hPa Calm     92% 0 mm 0 W/m2
01:39 0.7 °C -0.5 °C 1003.9 hPa Calm     92% 0 mm 0 W/m2
01:44 0.7 °C -0.5 °C 1004.3 hPa WSW 0.2 km/h 4.8 km/h 92% 0 mm 0 W/m2
01:49 0.6 °C -0.6 °C 1004.3 hPa Calm   4.8 km/h 92% 0 mm 0 W/m2
01:54 0.6 °C -0.6 °C 1004.3 hPa Calm   4.8 km/h 92% 0 mm 0 W/m2
01:59 0.6 °C -0.6 °C 1004.3 hPa Calm   4.8 km/h 92% 0 mm 0 W/m2
02:04 0.5 °C -0.7 °C 1004.3 hPa Calm   4.8 km/h 92% 0 mm 0 W/m2
02:09 0.5 °C -0.7 °C 1004.3 hPa Calm     92% 0 mm 0 W/m2
02:14 0.6 °C -0.6 °C 1003.9 hPa Calm     92% 0 mm 0 W/m2
02:19 0.6 °C -0.4 °C 1003.9 hPa WSW 0.2 km/h 4.8 km/h 92.8% 0 mm 0 W/m2
02:24 0.7 °C -0.3 °C 1003.9 hPa Calm   4.8 km/h 93% 0 mm 0 W/m2
02:29 0.7 °C -0.4 °C 1003.9 hPa Calm   4.8 km/h 92.7% 0 mm 0 W/m2
02:34 0.7 °C -0.5 °C 1003.9 hPa WSW 0.5 km/h 4.8 km/h 92% 0 mm 0 W/m2
02:39 0.6 °C -0.6 °C 1003.6 hPa WSW 1.9 km/h 9.7 km/h 92% 0 mm 0 W/m2
02:44 0.7 °C -0.5 °C 1003.6 hPa WSW 1.1 km/h 9.7 km/h 92% 0 mm 0 W/m2
02:49 0.7 °C -0.4 °C 1003.6 hPa WSW 0.2 km/h 9.7 km/h 92.5% 0 mm 0 W/m2
02:54 0.7 °C -0.3 °C 1003.6 hPa WSW 0.3 km/h 9.7 km/h 92.6% 0 mm 0 W/m2
02:59 0.8 °C -0.2 °C 1003.6 hPa Calm   9.7 km/h 93% 0 mm 0 W/m2
03:04 0.9 °C -0.1 °C 1003.9 hPa Calm   9.7 km/h 93% 0 mm 0 W/m2
03:09 0.9 °C -0.1 °C 1003.9 hPa Calm     93% 0 mm 0 W/m2
03:14 1 °C 0 °C 1003.9 hPa Calm     93% 0 mm 0 W/m2
03:19 1.1 °C 0.1 °C 1003.9 hPa WSW 0.5 km/h 6.4 km/h 93% 0 mm 0 W/m2
03:24 1.1 °C 0.1 °C 1003.9 hPa WSW 0.6 km/h 6.4 km/h 92.5% 0 mm 0 W/m2
03:29 1.2 °C 0.1 °C 1003.9 hPa Calm   6.4 km/h 92.6% 0 mm 0 W/m2
03:34 1.2 °C 0.1 °C 1003.9 hPa WSW 0.2 km/h 6.4 km/h 92.1% 0 mm 0 W/m2
03:39 1.2 °C 0.1 °C 1003.9 hPa WSW 0.2 km/h 4.8 km/h 92% 0 mm 0 W/m2
03:44 1.3 °C 0.1 °C 1004.3 hPa Calm   4.8 km/h 92% 0 mm 0 W/m2
03:49 1.3 °C 0.2 °C 1004.3 hPa Calm   4.8 km/h 92% 0 mm 0 W/m2
03:54 1.3 °C 0.2 °C 1004.3 hPa Calm   4.8 km/h 92% 0 mm 0 W/m2
03:59 1.4 °C 0.2 °C 1004.3 hPa Calm   4.8 km/h 92% 0 mm 0 W/m2
04:04 1.4 °C 0.2 °C 1003.9 hPa Calm   4.8 km/h 91.3% 0 mm 0 W/m2
04:09 1.4 °C 0.1 °C 1003.9 hPa Calm     91% 0 mm 0 W/m2
04:14 1.5 °C 0.2 °C 1003.9 hPa Calm     91% 0 mm 0 W/m2
04:19 1.5 °C 0.2 °C 1004.3 hPa Calm     91% 0 mm 0 W/m2
04:24 1.5 °C 0.2 °C 1004.3 hPa Calm     91% 0 mm 0 W/m2
04:29 1.5 °C 0.2 °C 1003.9 hPa Calm     91% 0 mm 0 W/m2
04:34 1.4 °C 0.1 °C 1003.9 hPa Calm     91% 0 mm 0 W/m2
04:39 1.4 °C 0.1 °C 1003.9 hPa WSW 0.2 km/h 1.6 km/h 91% 0 mm 0 W/m2
04:44 1.4 °C 0.1 °C 1003.9 hPa Calm   1.6 km/h 91% 0 mm 0 W/m2
04:49 1.3 °C 0 °C 1003.9 hPa Calm   1.6 km/h 91% 0 mm 0 W/m2
04:54 1.3 °C -0.1 °C 1004.3 hPa Calm   1.6 km/h 90.3% 0 mm 0 W/m2
04:59 1.3 °C -0.1 °C 1004.3 hPa Calm   1.6 km/h 90.5% 0 mm 0 W/m2
05:04 1.3 °C -0.1 °C 1004.3 hPa Calm   1.6 km/h 91% 0 mm 0 W/m2
05:09 1.3 °C -0.1 °C 1004.3 hPa Calm   1.6 km/h 91% 0 mm 0 W/m2
05:14 1.3 °C -0.1 °C 1004.3 hPa Calm   1.6 km/h 91% 0 mm 0 W/m2
05:19 1.3 °C 0 °C 1004.3 hPa Calm   1.6 km/h 91% 0 mm 0 W/m2
05:24 1.3 °C 0 °C 1004.3 hPa Calm   1.6 km/h 91% 0 mm 0 W/m2
05:29 1.4 °C 0.1 °C 1004.3 hPa Calm   1.6 km/h 91% 0 mm 0 W/m2
05:34 1.4 °C 0.1 °C 1004.3 hPa Calm   1.6 km/h 91% 0 mm 0 W/m2
05:39 1.4 °C 0.1 °C 1004.3 hPa Calm     91% 0 mm 0 W/m2
05:44 1.4 °C 0.1 °C 1003.9 hPa Calm     91% 0 mm 0 W/m2
05:49 1.5 °C 0.1 °C 1003.9 hPa Calm     90.5% 0 mm 0 W/m2
05:54 1.5 °C 0.1 °C 1003.9 hPa Calm     90% 0 mm 0 W/m2
05:59 1.5 °C 0.1 °C 1003.6 hPa Calm     90% 0 mm 0 W/m2
06:04 1.4 °C 0 °C 1003.6 hPa Calm     90% 0 mm 0 W/m2
06:09 1.4 °C 0 °C 1003.9 hPa Calm     90% 0 mm 0 W/m2
06:14 1.4 °C 0 °C 1003.9 hPa Calm     90% 0 mm 0 W/m2
06:19 1.4 °C -0.1 °C 1003.9 hPa Calm     90% 0 mm 0 W/m2
06:24 1.4 °C -0.1 °C 1003.9 hPa Calm     90% 0 mm 0 W/m2
06:29 1.3 °C -0.1 °C 1003.9 hPa Calm     90% 0 mm 0 W/m2
06:34 1.3 °C -0.2 °C 1004.3 hPa Calm     90% 0 mm 0 W/m2
06:39 1.2 °C -0.3 °C 1004.3 hPa Calm     90% 0 mm 0 W/m2
06:44 1.1 °C -0.3 °C 1004.3 hPa Calm     90% 0 mm 7 W/m2
06:49 1.1 °C -0.4 °C 1004.3 hPa Calm     90% 0 mm 12 W/m2
06:54 1.1 °C -0.3 °C 1004.3 hPa Calm     90.7% 0 mm 18 W/m2
06:59 1.1 °C -0.2 °C 1004.3 hPa Calm     91% 0 mm 21 W/m2
07:04 1.1 °C -0.2 °C 1004.3 hPa Calm     91% 0 mm 21 W/m2
07:09 1.2 °C -0.1 °C 1003.9 hPa Calm     91% 0 mm 21 W/m2
07:14 1.2 °C -0.1 °C 1003.9 hPa Calm     91% 0 mm 25 W/m2
07:18 1.2 °C -0.1 °C 1003.9 hPa Calm     91% 0 mm 46 W/m2
07:24 1.3 °C -0.1 °C 1003.9 hPa Calm     91% 0 mm 67 W/m2
07:29 1.4 °C 0.1 °C 1003.9 hPa Calm     91% 0 mm 97 W/m2
07:34 1.6 °C 0.2 °C 1003.9 hPa Calm     91% 0 mm 95 W/m2
07:39 1.7 °C 0.3 °C 1003.9 hPa Calm     91% 0 mm 63 W/m2
07:44 1.8 °C 0.4 °C 1004.3 hPa Calm     90.4% 0 mm 58 W/m2
07:49 1.9 °C 0.3 °C 1004.3 hPa Calm     89.5% 0 mm 54 W/m2
07:54 1.9 °C 0.3 °C 1004.3 hPa Calm     89% 0 mm 72 W/m2
07:59 2 °C 0.2 °C 1004.3 hPa WSW 0.3 km/h 4.8 km/h 88% 0 mm 97 W/m2
08:00 2.1 °C 0.3 °C 1004.3 hPa Calm   4.8 km/h 88% 0 mm 58 W/m2
08:09 2.2 °C 0.2 °C 1004.3 hPa Calm     87% 0 mm 65 W/m2
08:14 2.2 °C 0.3 °C 1004.3 hPa Calm     87% 0 mm 111 W/m2
08:19 2.3 °C 0.3 °C 1004.3 hPa Calm     87% 0 mm 148 W/m2
08:24 2.4 °C 0.4 °C 1003.9 hPa WSW 0.5 km/h 3.2 km/h 86.8% 0 mm 250 W/m2
08:29 2.6 °C 0.7 °C 1003.9 hPa WSW 0.2 km/h 4.8 km/h 86.8% 0 mm 250 W/m2
08:34 2.9 °C 0.8 °C 1003.9 hPa Calm   4.8 km/h 86% 0 mm 258 W/m2
08:39 3.3 °C 1.1 °C 1003.9 hPa Calm     85.4% 0 mm 218 W/m2
08:44 3.6 °C 1.1 °C 1003.9 hPa Calm     83.4% 0 mm 185 W/m2
08:49 3.8 °C 0.7 °C 1003.6 hPa SW 2.7 km/h 16.1 km/h 80.3% 0 mm 269 W/m2
08:54 3.9 °C 0.4 °C 1003.3 hPa SW 0.3 km/h 16.1 km/h 78.2% 0 mm 246 W/m2
08:59 4.1 °C 0.5 °C 1003.3 hPa SW 1.6 km/h 16.1 km/h 77.3% 0.25 mm 220 W/m2
09:04 4.2 °C 0.2 °C 1003.3 hPa SW 0.3 km/h 16.1 km/h 75.1% 0.25 mm 149 W/m2
09:09 4.3 °C 0.3 °C 1003.3 hPa SW 0.5 km/h 4.8 km/h 75.3% 0.25 mm 185 W/m2
09:14 4.2 °C 0.1 °C 1002.9 hPa SW 0.6 km/h 4.8 km/h 74.2% 0.25 mm 207 W/m2
09:19 4.3 °C 0.2 °C 1002.9 hPa SW 1.1 km/h 6.4 km/h 74.8% 0.25 mm 320 W/m2
09:24 4.3 °C 0.3 °C 1002.9 hPa Calm   6.4 km/h 75% 0.25 mm 316 W/m2
09:29 4.6 °C 0.5 °C 1003.3 hPa SW 0.8 km/h 6.4 km/h 74.8% 0.25 mm 411 W/m2
09:34 4.9 °C 0.4 °C 1003.3 hPa SW 2.6 km/h 11.3 km/h 72.5% 0.25 mm 394 W/m2
09:39 5.2 °C 0.3 °C 1003.3 hPa SW 4.8 km/h 11.3 km/h 71% 0.25 mm 397 W/m2
09:44 5.3 °C 0.3 °C 1003.3 hPa SW 3.4 km/h 11.3 km/h 70% 0.25 mm 468 W/m2
09:49 5.4 °C 0.3 °C 1003.3 hPa SW 3.2 km/h 11.3 km/h 69.9% 0.25 mm 422 W/m2
09:54 5.4 °C 0.3 °C 1003.3 hPa SW 2.4 km/h 11.3 km/h 69.5% 0.25 mm 408 W/m2
09:59 5.6 °C 0.4 °C 1003.3 hPa SW 4.5 km/h 11.3 km/h 69.2% 0.25 mm 424 W/m2
10:02 5.7 °C 0.3 °C 1003.3 hPa SW 3.2 km/h 16.1 km/h 68% 0.25 mm 422 W/m2
10:30 6.5 °C 0.8 °C 1002.6 hPa WSW 3.2 km/h 19.3 km/h 67% 0 mm 420 W/m2
11:09 6.7 °C 0.2 °C 1002.6 hPa SW 1.1 km/h 19.3 km/h 63.2% 0.25 mm 420 W/m2
11:14 6.6 °C 0.3 °C 1002.3 hPa SW 1.4 km/h 9.7 km/h 64.2% 0.25 mm 367 W/m2
11:19 6.5 °C 0.1 °C 1002.3 hPa SW 3.1 km/h 9.7 km/h 63.4% 0.25 mm 352 W/m2
11:24 6.5 °C 0.2 °C 1001.9 hPa SW 2.3 km/h 9.7 km/h 64% 0.25 mm 457 W/m2
11:29 6.6 °C 0 °C 1001.9 hPa SW 2.9 km/h 9.7 km/h 63.1% 0.25 mm 503 W/m2
11:34 6.7 °C 0.1 °C 1001.9 hPa SW 4.3 km/h 12.9 km/h 62.5% 0.25 mm 410 W/m2
11:39 6.8 °C 0.1 °C 1001.9 hPa SW 1.8 km/h 9.7 km/h 62% 0.25 mm 425 W/m2
11:44 7 °C 0.2 °C 1001.9 hPa SW 3.7 km/h 9.7 km/h 61.8% 0.25 mm 404 W/m2
11:49 7.1 °C -0.1 °C 1001.6 hPa South 3.9 km/h 11.3 km/h 60.3% 0.25 mm 403 W/m2
11:54 6.9 °C -0.3 °C 1001.6 hPa South 3.2 km/h 11.3 km/h 59.8% 0.25 mm 413 W/m2
11:59 6.9 °C -0.2 °C 1001.6 hPa SW 4.2 km/h 16.1 km/h 60.1% 0.25 mm 325 W/m2
12:00 7 °C -0.2 °C 1001.2 hPa SW 4.8 km/h 16.1 km/h 60% 0.25 mm 297 W/m2
12:09 7.1 °C -0.4 °C 1001.2 hPa SW 1.3 km/h 4.8 km/h 59% 0 mm 294 W/m2
12:14 7.1 °C -0.4 °C 1001.2 hPa SW 3.7 km/h 11.3 km/h 58.7% 0 mm 285 W/m2
12:19 7.1 °C -0.4 °C 1000.9 hPa SW 2.9 km/h 16.1 km/h 58.9% 0 mm 262 W/m2
12:24 7.1 °C -0.6 °C 1000.9 hPa SW 5.1 km/h 16.1 km/h 58.2% 0 mm 250 W/m2
12:29 6.9 °C -0.5 °C 1000.9 hPa SW 1.8 km/h 16.1 km/h 58.8% 0 mm 230 W/m2
12:34 6.9 °C -0.3 °C 1000.9 hPa SW 1.3 km/h 16.1 km/h 60.1% 0 mm 197 W/m2
12:39 6.8 °C -0.4 °C 1000.9 hPa SW 2.6 km/h 6.4 km/h 59.9% 0 mm 179 W/m2
12:44 6.8 °C -0.3 °C 1000.9 hPa SW 6 km/h 17.7 km/h 60.6% 0 mm 146 W/m2
12:49 6.6 °C -0.1 °C 1000.9 hPa West 4.3 km/h 17.7 km/h 62.6% 0 mm 153 W/m2
12:54 6.4 °C 0.1 °C 1000.9 hPa SW 3.5 km/h 17.7 km/h 64.2% 0 mm 130 W/m2
12:59 6.2 °C 0.2 °C 1000.9 hPa SW 3.2 km/h 17.7 km/h 65.7% 0 mm 74 W/m2
13:04 6 °C 0.3 °C 1000.9 hPa SW 1.6 km/h 17.7 km/h 66.8% 0 mm 97 W/m2
13:09 5.9 °C 0.4 °C 1000.9 hPa WSW 2.6 km/h 11.3 km/h 68% 0 mm 116 W/m2
13:14 5.7 °C 0.6 °C 1000.9 hPa SW 4.8 km/h 16.1 km/h 69.6% 0 mm 114 W/m2
13:19 5.6 °C 0.7 °C 1000.9 hPa SW 2.9 km/h 17.7 km/h 70.8% 0 mm 116 W/m2
13:24 5.5 °C 0.9 °C 1000.9 hPa SW 3.7 km/h 17.7 km/h 72.2% 0 mm 98 W/m2
13:29 5.3 °C 0.9 °C 1000.9 hPa SW 3.5 km/h 17.7 km/h 73.6% 0 mm 104 W/m2
13:34 5.1 °C 1.2 °C 1000.9 hPa SW 1.8 km/h 17.7 km/h 75.5% 0 mm 91 W/m2
13:39 4.9 °C 1.4 °C 1000.9 hPa SW 2.6 km/h 9.7 km/h 77.8% 0 mm 83 W/m2
13:44 4.8 °C 1.4 °C 1000.9 hPa SW 3.5 km/h 14.5 km/h 78.6% 0 mm 98 W/m2
13:49 4.6 °C 1.4 °C 1000.9 hPa SW 3.4 km/h 14.5 km/h 80.1% 0 mm 95 W/m2
13:54 4.5 °C 1.5 °C 1000.9 hPa SW 1.3 km/h 14.5 km/h 81.1% 0 mm 86 W/m2
13:59 4.4 °C 1.6 °C 1000.9 hPa SW 2.4 km/h 14.5 km/h 82% 0 mm 84 W/m2
14:04 4.3 °C 1.7 °C 1000.9 hPa SW 1.1 km/h 14.5 km/h 83% 0 mm 72 W/m2
14:09 4.3 °C 1.7 °C 1000.6 hPa SW 0.6 km/h 4.8 km/h 83% 0 mm 58 W/m2
14:14 4.2 °C 1.7 °C 1000.6 hPa SW 2.3 km/h 8 km/h 83.6% 0 mm 69 W/m2
14:19 4.2 °C 1.7 °C 1000.6 hPa SW 3.9 km/h 11.3 km/h 84% 0 mm 91 W/m2
14:24 4.2 °C 1.7 °C 1000.6 hPa SW 1.9 km/h 11.3 km/h 84% 0 mm 125 W/m2
14:29 4.2 °C 1.7 °C 1000.2 hPa SW 2.3 km/h 11.3 km/h 84% 0 mm 149 W/m2
14:34 4.2 °C 1.8 °C 1000.2 hPa SW 1.9 km/h 11.3 km/h 84% 0 mm 162 W/m2
14:39 4.3 °C 1.9 °C 1000.2 hPa SW 3.7 km/h 9.7 km/h 84% 0 mm 197 W/m2
14:44 4.4 °C 1.9 °C 1000.2 hPa SW 5 km/h 14.5 km/h 83.3% 0 mm 179 W/m2
14:49 4.5 °C 1.9 °C 1000.2 hPa SW 2.6 km/h 14.5 km/h 83% 0 mm 167 W/m2
14:54 4.6 °C 1.9 °C 1000.2 hPa SW 2.7 km/h 14.5 km/h 83% 0 mm 116 W/m2
14:59 4.6 °C 1.8 °C 1000.2 hPa SW 4.2 km/h 14.5 km/h 82.2% 0 mm 121 W/m2
15:04 4.6 °C 1.7 °C 1000.2 hPa SW 3.9 km/h 14.5 km/h 82% 0 mm 139 W/m2
15:09 4.6 °C 1.7 °C 1000.2 hPa SW 3.9 km/h 14.5 km/h 82% 0 mm 113 W/m2
15:14 4.6 °C 1.8 °C 1000.2 hPa SW 1.4 km/h 14.5 km/h 82% 0 mm 104 W/m2
15:19 4.6 °C 1.8 °C 1000.2 hPa SW 2.6 km/h 14.5 km/h 82% 0 mm 90 W/m2
15:24 4.6 °C 1.8 °C 1000.2 hPa SW 1.3 km/h 14.5 km/h 82% 0 mm 76 W/m2
15:29 4.7 °C 1.9 °C 1000.6 hPa SW 2.7 km/h 14.5 km/h 82% 0 mm 105 W/m2
15:34 4.7 °C 1.8 °C 1000.6 hPa SW 3.9 km/h 14.5 km/h 82% 0 mm 102 W/m2
15:39 4.6 °C 1.8 °C 1000.6 hPa WSW 1.3 km/h 9.7 km/h 82% 0 mm 58 W/m2
15:44 4.6 °C 1.8 °C 1000.6 hPa WSW 2.4 km/h 11.3 km/h 82% 0 mm 65 W/m2
15:49 4.5 °C 1.7 °C 1000.6 hPa WSW 1 km/h 11.3 km/h 82% 0 mm 86 W/m2
15:54 4.5 °C 1.7 °C 1000.6 hPa WSW 3.2 km/h 12.9 km/h 82% 0 mm 76 W/m2
15:59 4.4 °C 1.7 °C 1000.6 hPa SW 3.4 km/h 12.9 km/h 82% 0 mm 81 W/m2
16:00 4.4 °C 1.7 °C 1000.6 hPa SW 1.6 km/h 12.9 km/h 82% 0 mm 81 W/m2
16:09 4.4 °C 1.7 °C 1000.9 hPa SW 0.8 km/h 4.8 km/h 82% 0 mm 128 W/m2
16:14 4.5 °C 1.7 °C 1000.9 hPa SW 2.6 km/h 16.1 km/h 82% 0 mm 114 W/m2
16:19 4.6 °C 1.7 °C 1000.9 hPa SW 2.4 km/h 16.1 km/h 82% 0 mm 95 W/m2
16:24 4.6 °C 1.7 °C 1000.9 hPa WSW 1.8 km/h 16.1 km/h 82% 0 mm 83 W/m2
16:29 4.6 °C 1.7 °C 1000.9 hPa SW 1.8 km/h 16.1 km/h 82% 0 mm 63 W/m2
16:34 4.6 °C 1.7 °C 1000.9 hPa SW 1.1 km/h 16.1 km/h 82% 0 mm 47 W/m2
16:39 4.5 °C 1.7 °C 1000.9 hPa SW 1.4 km/h 11.3 km/h 82% 0 mm 39 W/m2
16:44 4.4 °C 1.7 °C 1000.9 hPa SW 1 km/h 11.3 km/h 82% 0 mm 40 W/m2
16:49 4.4 °C 1.8 °C 1000.9 hPa SW 0.8 km/h 11.3 km/h 82.9% 0 mm 35 W/m2
16:54 4.3 °C 1.7 °C 1000.9 hPa SW 0.6 km/h 11.3 km/h 83% 0 mm 25 W/m2
16:59 4.3 °C 1.7 °C 1001.2 hPa SW 1.4 km/h 11.3 km/h 83% 0 mm 18 W/m2
17:04 4.2 °C 1.6 °C 1001.2 hPa SW 1 km/h 11.3 km/h 83% 0 mm 19 W/m2
17:09 4.2 °C 1.6 °C 1001.2 hPa WSW 3.1 km/h 16.1 km/h 83.5% 0 mm 18 W/m2
17:14 4.1 °C 1.6 °C 1001.2 hPa SW 2.7 km/h 16.1 km/h 84% 0 mm 14 W/m2
17:19 4.1 °C 1.6 °C 1001.2 hPa SW 1 km/h 16.1 km/h 84% 0 mm 9 W/m2
17:24 4 °C 1.6 °C 1001.6 hPa SW 1 km/h 16.1 km/h 84.1% 0 mm 7 W/m2
17:29 3.9 °C 1.7 °C 1001.6 hPa SW 0.2 km/h 16.1 km/h 85% 0 mm 5 W/m2
17:34 3.9 °C 1.7 °C 1001.9 hPa Calm   16.1 km/h 85% 0 mm 0 W/m2
17:39 3.9 °C 1.6 °C 1001.9 hPa SW 0.6 km/h 9.7 km/h 85% 0 mm 0 W/m2
17:44 3.8 °C 1.6 °C 1001.9 hPa SW 0.3 km/h 9.7 km/h 85% 0 mm 0 W/m2
17:49 3.8 °C 1.6 °C 1001.9 hPa SW 0.3 km/h 9.7 km/h 85% 0 mm 0 W/m2
17:54 3.8 °C 1.6 °C 1001.9 hPa WSW 1.3 km/h 9.7 km/h 85% 0 mm 0 W/m2
17:59 3.8 °C 1.5 °C 1002.3 hPa WSW 0.6 km/h 9.7 km/h 85% 0 mm 0 W/m2
18:04 3.8 °C 1.6 °C 1002.3 hPa WSW 0.3 km/h 9.7 km/h 85% 0 mm 0 W/m2
18:09 3.8 °C 1.6 °C 1002.3 hPa WSW 0.2 km/h 3.2 km/h 85% 0 mm 0 W/m2
18:14 3.8 °C 1.5 °C 1002.6 hPa WSW 0.2 km/h 3.2 km/h 85% 0 mm 0 W/m2
18:19 3.8 °C 1.5 °C 1002.6 hPa WSW 0.2 km/h 3.2 km/h 85% 0 mm 0 W/m2
18:24 3.8 °C 1.5 °C 1002.6 hPa Calm   3.2 km/h 85% 0 mm 0 W/m2
18:29 3.7 °C 1.4 °C 1002.6 hPa Calm   3.2 km/h 85% 0 mm 0 W/m2
18:34 3.7 °C 1.4 °C 1002.6 hPa Calm   3.2 km/h 85% 0 mm 0 W/m2
18:39 3.6 °C 1.3 °C 1002.6 hPa Calm     85% 0 mm 0 W/m2
18:44 3.5 °C 1.3 °C 1002.9 hPa Calm     85.2% 0 mm 0 W/m2
18:49 3.5 °C 1.4 °C 1002.9 hPa WSW 0.3 km/h 4.8 km/h 86% 0 mm 0 W/m2
18:54 3.4 °C 1.3 °C 1002.9 hPa Calm   4.8 km/h 86% 0 mm 0 W/m2
18:59 3.4 °C 1.3 °C 1002.9 hPa Calm   4.8 km/h 86% 0 mm 0 W/m2
19:04 3.3 °C 1.2 °C 1002.9 hPa Calm   4.8 km/h 86% 0 mm 0 W/m2
19:09 3.3 °C 1.2 °C 1003.3 hPa Calm     86% 0 mm 0 W/m2
19:14 3.3 °C 1.2 °C 1003.3 hPa Calm     86% 0 mm 0 W/m2
19:19 3.2 °C 1.1 °C 1003.3 hPa Calm     86% 0 mm 0 W/m2
19:24 3.2 °C 1.1 °C 1003.3 hPa Calm     86% 0 mm 0 W/m2
19:29 3.1 °C 1 °C 1003.3 hPa Calm     86% 0 mm 0 W/m2
19:34 3.1 °C 1.1 °C 1003.6 hPa Calm     86.9% 0 mm 0 W/m2
19:39 3 °C 1.1 °C 1003.6 hPa Calm     87% 0 mm 0 W/m2
19:44 3 °C 1.1 °C 1003.6 hPa WSW 0.2 km/h 4.8 km/h 87% 0 mm 0 W/m2
19:49 3 °C 1.1 °C 1003.6 hPa Calm   4.8 km/h 87% 0 mm 0 W/m2
19:54 3.1 °C 1.2 °C 1003.6 hPa Calm   4.8 km/h 87.3% 0 mm 0 W/m2
19:59 3.1 °C 1.3 °C 1003.9 hPa WSW 0.8 km/h 4.8 km/h 88% 0 mm 0 W/m2
20:00 3.1 °C 1.3 °C 1003.9 hPa Calm   4.8 km/h 88% 0 mm 0 W/m2
20:09 3.2 °C 1.2 °C 1003.9 hPa WSW 0.3 km/h 4.8 km/h 87% 0 mm 0 W/m2
20:14 3.2 °C 1.4 °C 1004.3 hPa WSW 0.3 km/h 4.8 km/h 87.6% 0 mm 0 W/m2
20:19 3.3 °C 1.4 °C 1004.3 hPa Calm   4.8 km/h 87.3% 0 mm 0 W/m2
20:24 3.4 °C 1.4 °C 1004.3 hPa WSW 0.2 km/h 4.8 km/h 87% 0 mm 0 W/m2
20:29 3.5 °C 1.6 °C 1004.3 hPa WSW 0.2 km/h 4.8 km/h 87% 0 mm 0 W/m2
20:34 3.6 °C 1.6 °C 1004.6 hPa Calm   4.8 km/h 87% 0 mm 0 W/m2
20:39 3.6 °C 1.6 °C 1004.6 hPa WSW 0.3 km/h 4.8 km/h 86.2% 0 mm 0 W/m2
20:44 3.7 °C 1.6 °C 1004.6 hPa Calm   4.8 km/h 86% 0 mm 0 W/m2
20:49 3.7 °C 1.6 °C 1004.6 hPa WSW 1 km/h 6.4 km/h 86% 0 mm 0 W/m2
20:54 3.8 °C 1.7 °C 1005 hPa WSW 0.8 km/h 11.3 km/h 86% 0 mm 0 W/m2
20:59 3.8 °C 1.7 °C 1005 hPa WSW 0.8 km/h 11.3 km/h 86% 0 mm 0 W/m2
21:04 3.8 °C 1.6 °C 1005 hPa WSW 1.9 km/h 11.3 km/h 85.2% 0 mm 0 W/m2
21:09 3.9 °C 1.6 °C 1005.3 hPa SW 1 km/h 9.7 km/h 85% 0 mm 0 W/m2
21:14 3.9 °C 1.7 °C 1005.3 hPa SW 1.4 km/h 9.7 km/h 85% 0 mm 0 W/m2
21:19 3.9 °C 1.7 °C 1005.6 hPa SW 1.3 km/h 9.7 km/h 85% 0 mm 0 W/m2
21:24 4 °C 1.6 °C 1005.6 hPa SW 1.1 km/h 9.7 km/h 84.4% 0 mm 0 W/m2
21:29 4.1 °C 1.6 °C 1005.6 hPa SW 0.3 km/h 9.7 km/h 84% 0 mm 0 W/m2
21:34 4.1 °C 1.6 °C 1005.6 hPa West 5 km/h 14.5 km/h 84% 0 mm 0 W/m2
21:39 4.2 °C 1.6 °C 1005.6 hPa West 4.2 km/h 16.1 km/h 83.3% 0 mm 0 W/m2
21:44 4.3 °C 1.6 °C 1006 hPa WSW 2.1 km/h 16.1 km/h 82.7% 0 mm 0 W/m2
21:49 4.3 °C 1.6 °C 1006 hPa West 3.1 km/h 16.1 km/h 82% 0 mm 0 W/m2
21:54 4.3 °C 1.5 °C 1006.3 hPa West 3.1 km/h 16.1 km/h 81.5% 0 mm 0 W/m2
21:59 4.4 °C 1.4 °C 1006.7 hPa WSW 1.8 km/h 16.1 km/h 81% 0 mm 0 W/m2
22:04 4.4 °C 1.4 °C 1006.7 hPa WSW 1.9 km/h 16.1 km/h 80.8% 0 mm 0 W/m2
22:09 4.6 °C 1.4 °C 1006.7 hPa WSW 2.1 km/h 17.7 km/h 80% 0 mm 0 W/m2
22:14 4.6 °C 1.4 °C 1006.7 hPa Calm   17.7 km/h 80% 0 mm 0 W/m2
Hartford County Weather
Compliments of Weather Underground - 2 mb